Stations météo

Publicité
Formigueres, France (7737): Température de l'air & dewpoint: 16.09.2018 05:00:00 - 22.09.2018 05:00:00 (CEST)Formigueres, France (7737): Vitesse du vent & gusts: 16.09.2018 05:00:00 - 22.09.2018 05:00:00 (CEST)Formigueres, France (7737): Direction du vent: 16.09.2018 05:00:00 - 22.09.2018 05:00:00 (CEST)Formigueres, France (7737): Quantités de précipitations: 16.09.2018 05:00:00 - 22.09.2018 05:00:00 (CEST)
Date & Time tt [°C] td [°C] ff [km/h] ff [knt] fx [km/h] fx [knt] dd rr [mm]
22.09.2018 05:00:00 11,6 10,3 4 2 13 7 SW 0,0
22.09.2018 04:00:00 11,9 10,6 4 2 9 5 WNW 0,0
22.09.2018 03:00:00 11,9 10,8 4 2 15 8 NW 0,0
22.09.2018 02:00:00 12,0 11,1 4 2 24 13 N -
22.09.2018 01:00:00 12,1 11,0 11 6 26 14 N 0,0
22.09.2018 00:00:00 12,4 10,6 9 5 26 14 N 0,0
21.09.2018 23:00:00 12,5 10,6 16 9 31 17 N 0,0
21.09.2018 22:00:00 12,7 10,4 18 10 35 19 N 0,0
21.09.2018 21:00:00 13,1 10,6 15 8 34 18 NNE 0,0
21.09.2018 20:00:00 13,1 10,8 21 11 39 21 N -
21.09.2018 19:00:00 13,6 10,6 18 10 35 19 N 0,0
21.09.2018 18:00:00 15,5 11,3 18 10 34 18 NNE 0,0
21.09.2018 17:00:00 17,1 12,8 15 8 37 20 NNE 0,0
21.09.2018 16:00:00 18,6 13,2 18 10 37 20 NNE 0,0
21.09.2018 15:00:00 19,6 13,8 22 12 42 23 NNE 0,0
21.09.2018 14:00:00 19,5 13,4 28 15 44 24 NNE -
21.09.2018 13:00:00 19,1 12,4 26 14 48 26 NNE 0,0
21.09.2018 12:00:00 22,8 6,9 13 7 39 21 NW 0,0
21.09.2018 11:00:00 21,4 11,1 2 1 11 6 N 0,0
21.09.2018 10:00:00 17,9 11,5 4 2 9 5 E 0,0
21.09.2018 09:00:00 14,2 10,8 2 1 18 10 S 0,0
21.09.2018 08:00:00 9,8 7,0 13 7 22 12 WSW -
21.09.2018 07:00:00 9,8 7,0 13 7 21 11 WSW 0,0
21.09.2018 06:00:00 9,6 7,2 13 7 22 12 WSW 0,0
21.09.2018 05:00:00 9,6 6,7 9 5 18 10 WSW 0,0
21.09.2018 04:00:00 10,1 7,2 11 6 18 10 WSW 0,0
21.09.2018 03:00:00 10,6 7,3 15 8 22 12 WSW 0,0
21.09.2018 02:00:00 10,9 7,4 13 7 21 11 WSW -
21.09.2018 01:00:00 10,9 7,4 9 5 18 10 WSW 0,0
21.09.2018 00:00:00 11,0 7,3 13 7 18 10 WSW 0,0
20.09.2018 23:00:00 11,4 7,5 11 6 21 11 WSW 0,0
20.09.2018 22:00:00 12,3 8,0 13 7 22 12 WSW 0,0
20.09.2018 21:00:00 13,3 8,4 13 7 22 12 WSW 0,0
20.09.2018 20:00:00 14,7 9,1 13 7 16 9 W -
20.09.2018 19:00:00 18,6 9,4 9 5 28 15 NNW 0,0
20.09.2018 18:00:00 21,7 10,2 15 8 34 18 N 0,0
20.09.2018 17:00:00 22,5 10,0 16 9 34 18 N 0,0
20.09.2018 16:00:00 23,1 8,0 16 9 34 18 N 0,0
20.09.2018 15:00:00 23,9 7,1 13 7 24 13 NNE 0,0
20.09.2018 14:00:00 23,9 7,9 9 5 24 13 NNE -
20.09.2018 13:00:00 23,6 5,9 5 3 15 8 E 0,0
20.09.2018 12:00:00 22,1 7,5 4 2 11 6 ESE 0,0
20.09.2018 11:00:00 18,5 9,8 4 2 11 6 NE 0,0
20.09.2018 10:00:00 15,8 8,8 2 1 8 4 SSE 0,0
20.09.2018 09:00:00 11,6 5,9 2 1 16 9 S 0,0
20.09.2018 08:00:00 6,6 2,7 11 6 18 10 WSW -
20.09.2018 07:00:00 6,0 0,9 11 6 22 12 SW 0,0
20.09.2018 06:00:00 7,7 3,0 15 8 21 11 WSW 0,0
20.09.2018 05:00:00 7,7 4,1 11 6 21 11 WSW 0,0
20.09.2018 04:00:00 7,6 4,2 9 5 21 11 WSW 0,0
20.09.2018 03:00:00 8,2 5,0 13 7 22 12 WSW 0,0
20.09.2018 02:00:00 7,1 4,2 8 4 18 10 SW -
20.09.2018 01:00:00 9,3 6,0 16 9 24 13 WSW 0,0
20.09.2018 00:00:00 9,7 6,6 8 4 22 12 WSW 0,0
19.09.2018 23:00:00 9,7 7,3 8 4 21 11 WSW 0,0
19.09.2018 22:00:00 11,3 8,7 11 6 18 10 WSW 0,0
19.09.2018 21:00:00 12,2 10,6 9 5 15 8 WSW 0,0
19.09.2018 20:00:00 14,3 11,3 8 4 18 10 N -
19.09.2018 19:00:00 17,6 11,2 15 8 28 15 N 0,0
19.09.2018 18:00:00 20,4 11,3 16 9 37 20 NNE 0,0
19.09.2018 17:00:00 21,0 10,2 21 11 34 18 NNE 0,0
19.09.2018 16:00:00 21,9 9,4 18 10 34 18 NNE 0,0
19.09.2018 15:00:00 22,3 8,0 18 10 35 19 NNE 0,0
19.09.2018 14:00:00 21,9 9,8 18 10 35 19 NNE -
19.09.2018 13:00:00 21,0 11,6 18 10 37 20 NNE 0,0
19.09.2018 12:00:00 19,9 11,4 15 8 28 15 N 0,0
19.09.2018 11:00:00 18,4 12,2 8 4 13 7 ENE 0,0
19.09.2018 10:00:00 16,3 12,1 4 2 13 7 SE 0,0
19.09.2018 09:00:00 10,7 9,1 2 1 16 9 SW 0,0
19.09.2018 08:00:00 8,2 6,5 11 6 18 10 WSW -
19.09.2018 07:00:00 9,0 7,4 9 5 15 8 W 0,0
19.09.2018 06:00:00 10,2 9,0 9 5 15 8 WSW 0,0
19.09.2018 05:00:00 9,0 7,6 8 4 16 9 WSW 0,0
19.09.2018 04:00:00 8,9 7,5 4 2 15 8 WSW 0,0
19.09.2018 03:00:00 9,7 8,6 9 5 16 9 WSW 0,0
19.09.2018 02:00:00 10,2 8,6 8 4 15 8 WSW -
19.09.2018 01:00:00 10,3 8,2 5 3 13 7 WSW 0,0
19.09.2018 00:00:00 11,7 9,8 8 4 15 8 WSW 0,0
18.09.2018 23:00:00 11,6 9,8 8 4 16 9 SW 0,0
18.09.2018 22:00:00 11,9 10,3 11 6 15 8 WSW 0,0
18.09.2018 21:00:00 13,1 11,3 9 5 13 7 WSW 0,0
18.09.2018 20:00:00 14,1 12,0 0 0 11 6 N -
18.09.2018 19:00:00 14,6 11,9 8 4 22 12 SSE 0,0
18.09.2018 18:00:00 15,9 11,7 8 4 22 12 SE 0,0
18.09.2018 17:00:00 17,1 12,0 15 8 39 21 ESE 0,0
18.09.2018 16:00:00 18,2 12,6 18 10 39 21 ESE 0,0
18.09.2018 15:00:00 21,0 12,4 13 7 31 17 ENE 0,0
18.09.2018 14:00:00 20,1 11,3 5 3 22 12 NNE -
18.09.2018 13:00:00 18,3 9,6 5 3 15 8 S 0,0
18.09.2018 12:00:00 17,9 10,3 4 2 13 7 SSE 0,0
18.09.2018 11:00:00 15,4 10,6 5 3 9 5 NE 0,0
18.09.2018 10:00:00 13,7 9,1 2 1 9 5 ENE 0,0
18.09.2018 09:00:00 12,1 6,6 4 2 15 8 WSW 0,0
18.09.2018 08:00:00 8,7 3,3 5 3 24 13 W -
18.09.2018 07:00:00 8,6 3,8 16 9 24 13 WSW 0,0
18.09.2018 06:00:00 8,9 3,5 16 9 26 14 WSW 0,0
18.09.2018 05:00:00 9,0 3,6 16 9 24 13 W 0,0
18.09.2018 04:00:00 8,9 3,9 15 8 24 13 W 0,0
18.09.2018 03:00:00 9,4 4,8 16 9 22 12 W 0,0
18.09.2018 02:00:00 9,9 5,5 16 9 22 12 W -
18.09.2018 01:00:00 10,8 7,1 13 7 22 12 WSW 0,0
18.09.2018 00:00:00 11,2 8,1 11 6 16 9 WSW 0,0
17.09.2018 23:00:00 12,3 8,6 9 5 21 11 WSW 0,0
17.09.2018 22:00:00 14,2 10,2 13 7 22 12 S 0,0
17.09.2018 21:00:00 14,9 9,9 13 7 26 14 S 0,0
17.09.2018 20:00:00 15,8 9,9 9 5 22 12 SSW -
17.09.2018 19:00:00 19,8 9,7 11 6 21 11 S 0,0
17.09.2018 18:00:00 21,1 10,0 11 6 35 19 S 0,0
17.09.2018 17:00:00 20,5 12,2 18 10 31 17 ESE 0,0
17.09.2018 16:00:00 23,3 9,7 13 7 29 16 S 0,0
17.09.2018 15:00:00 22,9 10,7 11 6 34 18 S 0,0
17.09.2018 14:00:00 20,9 8,8 16 9 34 18 S -
17.09.2018 13:00:00 21,1 11,1 15 8 34 18 S 0,0
17.09.2018 12:00:00 18,7 10,0 11 6 24 13 S 0,0
17.09.2018 11:00:00 19,3 10,0 9 5 21 11 SSW 0,0
17.09.2018 10:00:00 14,4 9,8 4 2 15 8 W 0,0
17.09.2018 09:00:00 11,2 7,3 11 6 18 10 WSW 0,0
17.09.2018 08:00:00 10,0 6,0 9 5 22 12 WSW -
17.09.2018 07:00:00 9,7 5,9 11 6 21 11 WSW 0,0
17.09.2018 06:00:00 9,4 5,4 15 8 22 12 WSW 0,0
17.09.2018 05:00:00 8,5 5,4 11 6 22 12 WSW 0,0
17.09.2018 04:00:00 8,5 4,9 11 6 18 10 WSW 0,0
17.09.2018 03:00:00 8,8 5,2 13 7 22 12 WSW 0,0
17.09.2018 02:00:00 9,0 5,4 15 8 22 12 WSW -
17.09.2018 01:00:00 8,5 5,4 11 6 21 11 WSW 0,0
17.09.2018 00:00:00 9,3 5,7 8 4 18 10 WSW 0,0
16.09.2018 23:00:00 10,4 7,5 11 6 21 11 WSW 0,0
16.09.2018 22:00:00 11,5 8,7 16 9 22 12 WSW 0,0
16.09.2018 21:00:00 12,3 9,5 9 5 16 9 SW 0,0
16.09.2018 20:00:00 14,5 10,1 4 2 15 8 N -
16.09.2018 19:00:00 17,7 11,7 8 4 29 16 N 0,0
16.09.2018 18:00:00 17,0 10,8 18 10 37 20 N 0,0
16.09.2018 17:00:00 20,4 11,6 21 11 35 19 N 0,0
16.09.2018 16:00:00 21,6 11,3 18 10 34 18 N 0,0
16.09.2018 15:00:00 21,4 11,1 16 9 37 20 N 0,0
16.09.2018 14:00:00 21,7 11,1 16 9 35 19 NNE -
16.09.2018 13:00:00 20,8 10,0 16 9 34 18 NNE 0,0
16.09.2018 12:00:00 19,8 8,8 21 11 34 18 NNE 0,0
16.09.2018 11:00:00 19,9 10,9 4 2 9 5 NNE 0,0
16.09.2018 10:00:00 14,7 10,7 0 0 11 6 N 0,0
16.09.2018 09:00:00 10,9 7,0 8 4 22 12 WSW 0,0
16.09.2018 08:00:00 9,5 6,0 15 8 21 11 WSW -
16.09.2018 07:00:00 10,6 7,5 13 7 21 11 W 0,0
16.09.2018 06:00:00 11,4 8,1 8 4 18 10 WSW 0,0
16.09.2018 05:00:00 10,9 7,6 13 7 18 10 WSW 0,0

tt = Température de l'air
td = dewpoint
ff = Vitesse du vent
fx = gusts
dd = Direction du vent
rr = Quantités de précipitations

stations d'obs. à proximité